Time;durP1;ratioP1;P1;durP2;ratioP2;P2;SDS_P1;SDS_P2;PMS_P1;PMS_P2;Temp;Humidity;BMP_temperature;BMP_pressure;BME280_temperature;BME280_humidity;BME280_pressure;Samples;Min_cycle;Max_cycle;Signal;HPM_P1;HPM_P2
2023/04/15 00:01:58;;;;;;;1.77;0.65;;;9.30;66.90;;;;;;4742898;30;20062;-85
2023/04/15 00:04:26;;;;;;;0.85;0.45;;;9.30;67.00;;;;;;4744339;30;20432;-85
2023/04/15 00:06:54;;;;;;;2.60;0.63;;;9.30;67.20;;;;;;4746609;30;20049;-86
2023/04/15 00:09:21;;;;;;;0.77;0.40;;;9.30;67.30;;;;;;4736958;30;20140;-85
2023/04/15 00:11:50;;;;;;;0.60;0.22;;;9.30;67.30;;;;;;4756663;30;20125;-85
2023/04/15 00:14:17;;;;;;;1.00;0.40;;;9.30;67.40;;;;;;4756379;30;20060;-86
2023/04/15 00:16:44;;;;;;;0.90;0.40;;;9.20;67.50;;;;;;4754769;30;20055;-86
2023/04/15 00:19:14;;;;;;;0.90;0.50;;;9.20;67.50;;;;;;4746773;30;20048;-86
2023/04/15 00:21:44;;;;;;;1.52;0.47;;;9.20;67.60;;;;;;4740045;30;20067;-85
2023/04/15 00:24:11;;;;;;;1.55;0.45;;;9.20;67.70;;;;;;4739222;30;20060;-85
2023/04/15 00:26:38;;;;;;;0.63;0.38;;;9.20;67.70;;;;;;4745635;30;20458;-85
2023/04/15 00:29:05;;;;;;;2.13;0.40;;;9.20;67.80;;;;;;4746938;30;20051;-85
2023/04/15 00:31:35;;;;;;;2.47;0.50;;;9.20;67.90;;;;;;4739684;30;20048;-85
2023/04/15 00:34:02;;;;;;;0.50;0.38;;;9.10;67.90;;;;;;4741797;30;20083;-85
2023/04/15 00:36:30;;;;;;;1.33;0.60;;;9.10;68.00;;;;;;4756392;30;20052;-84
2023/04/15 00:38:57;;;;;;;1.23;0.60;;;9.10;68.10;;;;;;4743960;30;20048;-85
2023/04/15 00:41:25;;;;;;;0.80;0.40;;;9.10;68.20;;;;;;4741811;30;20058;-85
2023/04/15 00:43:52;;;;;;;1.30;0.45;;;9.10;68.20;;;;;;4743966;30;20142;-85
2023/04/15 00:46:20;;;;;;;1.70;0.57;;;9.10;68.30;;;;;;4756234;30;20058;-85
2023/04/15 00:48:48;;;;;;;1.27;0.43;;;9.10;68.40;;;;;;4743692;30;20087;-85
2023/04/15 00:51:15;;;;;;;2.28;0.90;;;9.10;68.50;;;;;;4730430;30;20056;-85
2023/04/15 00:53:42;;;;;;;0.80;0.50;;;9.00;68.60;;;;;;4759156;30;20070;-85
2023/04/15 00:56:09;;;;;;;2.55;0.80;;;9.00;68.60;;;;;;4755433;30;20413;-85
2023/04/15 00:58:37;;;;;;;1.33;0.65;;;9.00;68.90;;;;;;4755321;30;20048;-85
2023/04/15 01:01:04;;;;;;;1.08;0.50;;;9.00;68.80;;;;;;4749544;30;20052;-85
2023/04/15 01:03:31;;;;;;;0.80;0.40;;;9.00;68.90;;;;;;4755997;30;20087;-85
2023/04/15 01:05:59;;;;;;;3.92;0.82;;;9.00;69.00;;;;;;4737495;30;20150;-85
2023/04/15 01:08:30;;;;;;;1.30;0.50;;;9.00;69.10;;;;;;4730003;30;20409;-84
2023/04/15 01:11:02;;;;;;;1.00;0.60;;;8.90;69.20;;;;;;4750235;30;20048;-84
2023/04/15 01:13:32;;;;;;;2.22;0.70;;;9.00;69.40;;;;;;4752663;30;20064;-84
2023/04/15 01:16:00;;;;;;;1.05;0.68;;;8.90;69.40;;;;;;4770670;30;20051;-85
2023/04/15 01:18:29;;;;;;;2.08;0.80;;;8.90;69.40;;;;;;4724582;30;20399;-84
2023/04/15 01:20:57;;;;;;;1.48;0.50;;;8.90;69.60;;;;;;4747890;30;20056;-84
2023/04/15 01:23:27;;;;;;;1.08;0.40;;;8.90;69.60;;;;;;4743231;30;20052;-83
2023/04/15 01:25:58;;;;;;;0.90;0.40;;;8.90;69.80;;;;;;4754855;30;20151;-84
2023/04/15 01:28:26;;;;;;;1.90;0.73;;;8.90;69.90;;;;;;4733012;30;20099;-84
2023/04/15 01:31:12;;;;;;;1.45;0.52;;;8.80;70.00;;;;;;4746009;30;20055;-84
2023/04/15 01:33:41;;;;;;;1.20;0.60;;;8.90;70.10;;;;;;4749917;30;20060;-84
2023/04/15 01:36:09;;;;;;;1.75;0.60;;;8.80;70.10;;;;;;4744354;30;20072;-84
2023/04/15 01:38:37;;;;;;;1.83;0.55;;;8.90;70.30;;;;;;4750124;30;20139;-84
2023/04/15 01:41:06;;;;;;;1.60;0.60;;;8.80;70.30;;;;;;4745555;30;20439;-83
2023/04/15 01:43:36;;;;;;;1.80;0.80;;;8.80;70.40;;;;;;4739037;30;20056;-84
2023/04/15 01:46:05;;;;;;;1.02;0.50;;;8.80;70.50;;;;;;4747679;30;20159;-84
2023/04/15 01:48:32;;;;;;;1.25;0.50;;;8.80;70.60;;;;;;4723723;30;20056;-85
2023/04/15 01:51:00;;;;;;;1.95;0.75;;;8.80;70.70;;;;;;4729142;30;20420;-83
2023/04/15 01:53:28;;;;;;;0.90;0.50;;;8.80;70.70;;;;;;4723336;30;20060;-83
2023/04/15 01:55:55;;;;;;;0.90;0.50;;;8.80;70.80;;;;;;4723395;30;20056;-83
2023/04/15 01:58:24;;;;;;;1.23;0.50;;;8.80;70.90;;;;;;4737144;30;20049;-83
2023/04/15 02:00:51;;;;;;;1.85;0.88;;;8.80;71.00;;;;;;4738444;30;20143;-83
2023/04/15 02:03:18;;;;;;;1.60;0.68;;;8.80;71.20;;;;;;4737527;30;20521;-83
2023/04/15 02:05:45;;;;;;;2.13;0.93;;;8.70;71.20;;;;;;4739471;30;20059;-83
2023/04/15 02:08:13;;;;;;;1.65;0.60;;;8.70;71.40;;;;;;4739683;30;20497;-83
2023/04/15 02:10:40;;;;;;;1.52;0.60;;;8.70;71.40;;;;;;4727231;30;20520;-83
2023/04/15 02:13:10;;;;;;;1.90;0.60;;;8.70;71.50;;;;;;4744498;30;20059;-83
2023/04/15 02:15:37;;;;;;;1.80;0.70;;;8.70;71.60;;;;;;4742179;30;20047;-83
2023/04/15 02:18:04;;;;;;;1.17;0.50;;;8.60;71.60;;;;;;4735858;30;20055;-83
2023/04/15 02:20:31;;;;;;;1.65;0.50;;;8.70;71.80;;;;;;4743953;30;20052;-84
2023/04/15 02:22:58;;;;;;;2.55;0.80;;;8.60;71.80;;;;;;4754500;30;20044;-83
2023/04/15 02:25:25;;;;;;;2.40;0.52;;;8.60;72.00;;;;;;4742636;30;20060;-83
2023/04/15 02:27:56;;;;;;;1.77;0.65;;;8.60;72.00;;;;;;4714896;30;20052;-83
2023/04/15 02:30:24;;;;;;;2.45;0.57;;;8.60;72.20;;;;;;4734929;30;20059;-83
2023/04/15 02:32:52;;;;;;;2.10;0.50;;;8.50;72.20;;;;;;4732553;30;20090;-84
2023/04/15 02:35:19;;;;;;;1.45;0.63;;;8.50;72.30;;;;;;4738635;30;20048;-83
2023/04/15 02:37:46;;;;;;;1.30;0.52;;;8.50;72.40;;;;;;4731257;30;20134;-83
2023/04/15 02:40:14;;;;;;;3.15;0.88;;;8.50;72.50;;;;;;4752177;30;20070;-83
2023/04/15 02:42:43;;;;;;;2.28;1.10;;;8.50;72.60;;;;;;4729801;30;20420;-84
2023/04/15 02:45:13;;;;;;;3.20;1.20;;;8.60;72.60;;;;;;4754325;30;20055;-83
2023/04/15 02:47:41;;;;;;;2.72;1.00;;;8.60;72.60;;;;;;4732986;30;20053;-84
2023/04/15 02:50:11;;;;;;;2.75;1.20;;;8.60;72.70;;;;;;4740053;30;20078;-84
2023/04/15 02:52:41;;;;;;;2.22;0.98;;;8.60;72.60;;;;;;4746051;30;20137;-83
2023/04/15 02:55:09;;;;;;;1.63;0.85;;;8.60;72.70;;;;;;4754254;30;20052;-84
2023/04/15 02:57:37;;;;;;;2.58;0.82;;;8.60;72.90;;;;;;4726141;30;20520;-84
2023/04/15 03:00:09;;;;;;;2.53;1.15;;;8.60;73.00;;;;;;4749311;30;20052;-84
2023/04/15 03:02:45;;;;;;;3.65;1.17;;;8.60;73.10;;;;;;4748989;30;20060;-84
2023/04/15 03:05:13;;;;;;;4.30;2.20;;;8.60;73.10;;;;;;4761679;30;20459;-83
2023/04/15 03:07:50;;;;;;;3.00;1.38;;;8.50;73.40;;;;;;4741403;30;20059;-83
2023/04/15 03:10:17;;;;;;;1.63;0.90;;;8.50;73.50;;;;;;4753123;30;20047;-83
2023/04/15 03:12:46;;;;;;;2.63;1.40;;;8.50;73.60;;;;;;4735940;30;20501;-83
2023/04/15 03:15:17;;;;;;;4.30;1.02;;;8.50;73.60;;;;;;4747899;30;20417;-84
2023/04/15 03:17:48;;;;;;;3.30;1.17;;;8.40;73.70;;;;;;4736565;30;20080;-84
2023/04/15 03:20:16;;;;;;;2.70;1.23;;;8.40;73.80;;;;;;4737314;30;20159;-84
2023/04/15 03:22:43;;;;;;;1.73;1.15;;;8.40;74.00;;;;;;4741055;30;20059;-83
2023/04/15 03:25:11;;;;;;;2.50;1.20;;;8.40;74.10;;;;;;4757457;30;20059;-84
2023/04/15 03:27:38;;;;;;;1.92;0.93;;;8.30;74.20;;;;;;4739969;30;20147;-84
2023/04/15 03:30:06;;;;;;;1.98;0.80;;;8.30;74.30;;;;;;4754608;30;20497;-84
2023/04/15 03:32:36;;;;;;;2.13;0.95;;;8.30;74.40;;;;;;4749416;30;20521;-84
2023/04/15 03:35:05;;;;;;;2.00;0.80;;;8.30;74.50;;;;;;4755600;30;20048;-84
2023/04/15 03:37:32;;;;;;;1.88;1.10;;;8.20;74.70;;;;;;4735578;30;20106;-84
2023/04/15 03:39:59;;;;;;;2.15;1.02;;;8.20;74.70;;;;;;4740130;30;20056;-84
2023/04/15 03:42:26;;;;;;;2.25;1.00;;;8.20;74.80;;;;;;4742943;30;20048;-84
2023/04/15 03:44:54;;;;;;;2.22;1.10;;;8.20;74.90;;;;;;4731389;30;20048;-84
2023/04/15 03:47:22;;;;;;;2.45;1.27;;;8.10;75.10;;;;;;4744045;30;20047;-84
2023/04/15 03:49:49;;;;;;;2.35;1.02;;;8.10;75.30;;;;;;4747114;30;20143;-84
2023/04/15 03:52:16;;;;;;;2.60;1.20;;;8.10;75.30;;;;;;4769987;30;20056;-85
2023/04/15 03:54:43;;;;;;;3.92;1.60;;;8.10;75.40;;;;;;4737924;30;20063;-85
2023/04/15 03:57:10;;;;;;;3.17;1.63;;;8.10;75.50;;;;;;4743066;30;20078;-85
2023/04/15 03:59:37;;;;;;;2.28;1.27;;;8.10;75.70;;;;;;4731968;30;20060;-85
2023/04/15 04:02:05;;;;;;;4.18;1.48;;;8.00;75.60;;;;;;4757056;30;20486;-85
2023/04/15 04:04:32;;;;;;;2.90;1.50;;;8.00;75.90;;;;;;4730561;30;20044;-85
2023/04/15 04:06:59;;;;;;;4.45;2.42;;;8.00;76.10;;;;;;4742710;30;20062;-85
2023/04/15 04:09:26;;;;;;;2.78;1.33;;;8.00;76.20;;;;;;4727310;30;20509;-85
2023/04/15 04:11:56;;;;;;;2.90;1.70;;;8.00;76.30;;;;;;4735997;30;20059;-85
2023/04/15 04:14:28;;;;;;;2.88;1.33;;;7.90;76.30;;;;;;4733740;30;20074;-85
2023/04/15 04:16:56;;;;;;;2.83;1.33;;;7.90;76.50;;;;;;4744769;30;20113;-85
2023/04/15 04:19:23;;;;;;;3.05;1.23;;;7.90;76.50;;;;;;4731154;30;20054;-85
2023/04/15 04:21:50;;;;;;;2.83;1.20;;;7.90;76.60;;;;;;4766184;30;20480;-84
2023/04/15 04:24:21;;;;;;;3.45;2.22;;;7.90;76.70;;;;;;4748653;30;20052;-85
2023/04/15 04:26:48;;;;;;;4.30;2.47;;;7.90;76.80;;;;;;4743934;30;20060;-85
2023/04/15 04:29:15;;;;;;;3.72;1.75;;;7.80;77.00;;;;;;4748145;30;20087;-84
2023/04/15 04:31:43;;;;;;;3.50;1.80;;;7.80;77.10;;;;;;4751281;30;20127;-85
2023/04/15 04:34:13;;;;;;;3.58;1.50;;;7.80;77.10;;;;;;4752302;30;20142;-84
2023/04/15 04:36:40;;;;;;;3.25;1.58;;;7.70;77.30;;;;;;4743037;30;20040;-84
2023/04/15 04:39:07;;;;;;;3.97;1.90;;;7.70;77.50;;;;;;4730382;30;20051;-84
2023/04/15 04:41:35;;;;;;;3.45;1.52;;;7.70;77.60;;;;;;4755952;30;20055;-84
2023/04/15 04:44:02;;;;;;;3.03;1.48;;;7.70;77.60;;;;;;4753326;30;20052;-85
2023/04/15 04:46:29;;;;;;;2.50;1.30;;;7.70;77.70;;;;;;4750842;30;20056;-84
2023/04/15 04:48:56;;;;;;;2.85;1.73;;;7.70;77.80;;;;;;4752364;30;20052;-84
2023/04/15 04:51:24;;;;;;;4.18;1.73;;;7.70;77.90;;;;;;4737191;30;20142;-84
2023/04/15 04:53:53;;;;;;;2.80;1.48;;;7.70;78.00;;;;;;4736679;30;20136;-84
2023/04/15 04:56:20;;;;;;;4.15;1.83;;;7.70;78.10;;;;;;4741534;30;20072;-84
2023/04/15 04:58:47;;;;;;;3.63;2.00;;;7.60;78.20;;;;;;4742713;30;20052;-84
2023/04/15 05:01:14;;;;;;;4.18;2.22;;;7.60;78.30;;;;;;4745096;30;20486;-84
2023/04/15 05:03:41;;;;;;;3.90;1.98;;;7.60;78.40;;;;;;4750340;30;20047;-84
2023/04/15 05:06:09;;;;;;;3.85;2.28;;;7.60;78.40;;;;;;4736659;30;20060;-85
2023/04/15 05:08:36;;;;;;;4.75;2.05;;;7.60;78.60;;;;;;4738531;30;20064;-85
2023/04/15 05:11:06;;;;;;;3.72;1.67;;;7.60;78.70;;;;;;4731557;30;20063;-85
2023/04/15 05:13:37;;;;;;;3.38;1.85;;;7.60;78.80;;;;;;4749804;30;20060;-85
2023/04/15 05:16:05;;;;;;;3.53;2.05;;;7.60;78.80;;;;;;4764909;30;20047;-85
2023/04/15 05:18:32;;;;;;;4.88;1.73;;;7.60;78.80;;;;;;4728875;30;20056;-85
2023/04/15 05:20:59;;;;;;;3.97;1.60;;;7.60;79.00;;;;;;4730952;30;20056;-85
2023/04/15 05:23:27;;;;;;;4.38;2.55;;;7.60;79.00;;;;;;4735878;30;20405;-85
2023/04/15 05:25:54;;;;;;;4.35;2.13;;;7.60;79.20;;;;;;4732460;30;20063;-85
2023/04/15 05:28:21;;;;;;;4.57;1.75;;;7.60;79.20;;;;;;4740989;30;20063;-84
2023/04/15 05:30:48;;;;;;;4.00;2.13;;;7.60;79.20;;;;;;4741013;30;20350;-85
2023/04/15 05:33:16;;;;;;;4.45;2.45;;;7.70;79.40;;;;;;4733039;30;20048;-85
2023/04/15 05:35:43;;;;;;;4.75;2.45;;;7.70;79.40;;;;;;4740701;30;20055;-84
2023/04/15 05:38:10;;;;;;;5.22;1.95;;;7.70;79.50;;;;;;4752320;30;20144;-85
2023/04/15 05:40:37;;;;;;;4.85;2.72;;;7.70;79.50;;;;;;4755237;30;20052;-85
2023/04/15 05:43:07;;;;;;;4.93;2.50;;;7.80;79.80;;;;;;4754810;30;20489;-85
2023/04/15 05:45:36;;;;;;;4.20;2.00;;;7.80;79.70;;;;;;4725041;30;20060;-85
2023/04/15 05:48:03;;;;;;;4.93;2.50;;;7.90;79.60;;;;;;4745324;30;20082;-85
2023/04/15 05:50:30;;;;;;;3.88;2.45;;;8.00;80.00;;;;;;4737794;30;20055;-85
2023/04/15 05:52:59;;;;;;;4.50;2.20;;;8.00;79.80;;;;;;4755435;30;20060;-85
2023/04/15 05:55:26;;;;;;;3.50;1.85;;;8.10;79.70;;;;;;4742576;30;20519;-85
2023/04/15 05:57:53;;;;;;;3.33;1.63;;;8.20;79.50;;;;;;4754881;30;20409;-85
2023/04/15 06:00:21;;;;;;;3.55;1.48;;;8.30;79.40;;;;;;4748813;30;20048;-85
2023/04/15 06:02:48;;;;;;;4.03;2.10;;;8.40;79.90;;;;;;4742869;30;20052;-85
2023/04/15 06:05:15;;;;;;;3.58;1.63;;;8.60;79.10;;;;;;4744110;30;20048;-85
2023/04/15 06:07:42;;;;;;;3.28;1.70;;;8.70;79.00;;;;;;4766094;30;20044;-85
2023/04/15 06:10:11;;;;;;;3.65;1.98;;;8.80;78.90;;;;;;4746709;30;20062;-85
2023/04/15 06:12:39;;;;;;;4.50;2.25;;;8.90;78.80;;;;;;4736515;30;20051;-85
2023/04/15 06:15:09;;;;;;;4.90;2.38;;;8.90;78.80;;;;;;4753062;30;20425;-85
2023/04/15 06:17:36;;;;;;;3.22;1.75;;;9.00;78.80;;;;;;4754968;30;20358;-85
2023/04/15 06:20:04;;;;;;;3.97;2.03;;;9.10;78.80;;;;;;4747576;30;20470;-85
2023/04/15 06:22:31;;;;;;;4.90;2.25;;;9.10;78.70;;;;;;4745669;30;20117;-85
2023/04/15 06:24:58;;;;;;;5.40;2.45;;;9.20;78.70;;;;;;4740257;30;20044;-86
2023/04/15 06:27:25;;;;;;;5.28;2.65;;;9.20;79.40;;;;;;4737003;30;20567;-84
2023/04/15 06:29:52;;;;;;;6.22;2.60;;;9.20;78.80;;;;;;4750190;30;20425;-85
2023/04/15 06:32:20;;;;;;;4.25;2.15;;;9.20;79.00;;;;;;4752947;30;20479;-85
2023/04/15 06:34:47;;;;;;;4.90;2.30;;;9.20;79.10;;;;;;4728244;30;20067;-85
2023/04/15 06:37:15;;;;;;;4.28;2.10;;;9.20;79.20;;;;;;4736750;30;20052;-85
2023/04/15 06:39:43;;;;;;;4.68;2.25;;;9.10;79.20;;;;;;4737202;30;20052;-85
2023/04/15 06:42:11;;;;;;;3.05;1.75;;;9.10;79.30;;;;;;4749189;30;20052;-85
2023/04/15 06:44:38;;;;;;;4.60;2.40;;;9.10;79.40;;;;;;4736805;30;20048;-85
2023/04/15 06:47:06;;;;;;;4.45;2.55;;;9.10;79.50;;;;;;4741054;30;20052;-85
2023/04/15 06:49:33;;;;;;;3.92;2.13;;;9.10;79.60;;;;;;4747384;30;20054;-86
2023/04/15 06:52:01;;;;;;;4.03;2.35;;;9.10;79.60;;;;;;4754169;30;20118;-85
2023/04/15 06:54:28;;;;;;;5.18;2.35;;;9.00;79.60;;;;;;4747573;30;20414;-85
2023/04/15 06:56:55;;;;;;;4.70;2.40;;;9.00;79.70;;;;;;4734105;30;20052;-86
2023/04/15 06:59:26;;;;;;;4.00;2.30;;;9.00;80.30;;;;;;4740031;30;20409;-85
2023/04/15 07:01:53;;;;;;;4.50;2.10;;;9.00;79.70;;;;;;4740120;30;20505;-86
2023/04/15 07:04:20;;;;;;;4.32;2.53;;;9.00;79.70;;;;;;4731140;30;20047;-86
2023/04/15 07:06:47;;;;;;;4.13;2.22;;;9.00;79.70;;;;;;4731729;30;20066;-84
2023/04/15 07:09:14;;;;;;;6.00;2.63;;;9.00;79.60;;;;;;4739147;30;20056;-84
2023/04/15 07:11:41;;;;;;;4.50;2.33;;;9.00;79.80;;;;;;4746478;30;20091;-83
2023/04/15 07:14:09;;;;;;;4.60;2.28;;;9.00;79.70;;;;;;4752228;30;20064;-83
2023/04/15 07:16:36;;;;;;;3.70;1.75;;;9.00;80.30;;;;;;4744093;30;20495;-84
2023/04/15 07:19:03;;;;;;;4.70;2.38;;;9.00;79.80;;;;;;4748140;30;20056;-83
2023/04/15 07:21:31;;;;;;;3.97;1.38;;;9.00;79.80;;;;;;4748821;30;20052;-83
2023/04/15 07:23:58;;;;;;;4.40;2.10;;;9.00;79.90;;;;;;4731524;30;20068;-83
2023/04/15 07:26:25;;;;;;;4.78;2.03;;;9.00;79.80;;;;;;4722396;30;20048;-83
2023/04/15 07:28:52;;;;;;;3.00;1.65;;;9.00;79.90;;;;;;4739549;30;20063;-83
2023/04/15 07:31:19;;;;;;;3.95;2.08;;;9.00;79.90;;;;;;4738103;30;20104;-83
2023/04/15 07:33:47;;;;;;;4.95;2.50;;;9.00;79.80;;;;;;4741246;30;20082;-84
2023/04/15 07:36:14;;;;;;;4.47;2.13;;;9.10;79.90;;;;;;4740048;30;20059;-83
2023/04/15 07:38:42;;;;;;;4.70;2.50;;;9.10;79.80;;;;;;4739219;30;20048;-83
2023/04/15 07:41:09;;;;;;;3.75;2.30;;;9.20;79.80;;;;;;4745295;30;20048;-84
2023/04/15 07:43:39;;;;;;;3.22;1.77;;;9.20;79.60;;;;;;4738053;30;20056;-83
2023/04/15 07:46:08;;;;;;;4.35;2.05;;;9.30;79.60;;;;;;4732358;30;20511;-84
2023/04/15 07:48:35;;;;;;;4.68;2.17;;;9.40;79.50;;;;;;4751844;30;20052;-84
2023/04/15 07:51:03;;;;;;;3.80;1.77;;;9.40;79.30;;;;;;4732753;30;20056;-84
2023/04/15 07:53:31;;;;;;;5.03;2.25;;;9.50;79.20;;;;;;4748760;30;20398;-89
2023/04/15 07:55:58;;;;;;;4.13;1.98;;;9.60;79.20;;;;;;4735327;30;20049;-89
2023/04/15 07:58:26;;;;;;;3.22;1.75;;;9.70;79.00;;;;;;4737329;30;20424;-88
2023/04/15 08:00:54;;;;;;;3.10;1.30;;;9.80;78.80;;;;;;4753312;30;20501;-88
2023/04/15 08:03:22;;;;;;;5.05;2.00;;;9.90;78.70;;;;;;4731190;30;20059;-87
2023/04/15 08:05:49;;;;;;;3.78;2.00;;;10.00;78.50;;;;;;4737216;30;20048;-86
2023/04/15 08:08:16;;;;;;;4.95;2.03;;;10.20;78.30;;;;;;4748517;30;20052;-87
2023/04/15 08:10:43;;;;;;;5.50;3.03;;;10.30;78.10;;;;;;4750653;30;20051;-88
2023/04/15 08:13:11;;;;;;;4.88;2.38;;;10.40;77.90;;;;;;4742959;30;20056;-87
2023/04/15 08:15:38;;;;;;;4.43;2.33;;;10.50;77.70;;;;;;4743255;30;20043;-87
2023/04/15 08:18:05;;;;;;;3.75;1.65;;;10.60;77.50;;;;;;4743568;30;20450;-87
2023/04/15 08:20:32;;;;;;;4.00;2.20;;;10.70;77.40;;;;;;4742943;30;20150;-87
2023/04/15 08:22:59;;;;;;;3.92;2.03;;;10.70;77.10;;;;;;4742120;30;20056;-88
2023/04/15 08:25:27;;;;;;;5.60;2.17;;;10.70;77.00;;;;;;4740098;30;20076;-87
2023/04/15 08:27:59;;;;;;;4.38;2.10;;;10.70;76.80;;;;;;4725486;30;20067;-87
2023/04/15 08:30:27;;;;;;;3.40;1.50;;;10.80;76.80;;;;;;4731988;30;20056;-84
2023/04/15 08:32:54;;;;;;;3.92;1.90;;;10.90;76.80;;;;;;4749462;30;20066;-84
2023/04/15 08:35:21;;;;;;;3.42;1.67;;;10.90;76.30;;;;;;4742957;30;20433;-86
2023/04/15 08:37:48;;;;;;;3.40;1.48;;;11.00;76.20;;;;;;4742087;30;20066;-86
2023/04/15 08:40:16;;;;;;;1.77;1.00;;;11.10;76.10;;;;;;4757136;30;20043;-85
2023/04/15 08:42:50;;;;;;;3.20;1.50;;;11.20;75.90;;;;;;4743613;30;20420;-92
2023/04/15 08:45:21;;;;;;;3.20;1.60;;;11.30;75.40;;;;;;4757922;30;20116;-88
2023/04/15 08:47:55;;;;;;;2.80;1.10;;;11.30;75.40;;;;;;4737396;30;20083;-88
2023/04/15 08:50:25;;;;;;;2.20;0.93;;;11.40;75.50;;;;;;4743230;30;20116;-86
2023/04/15 08:52:57;;;;;;;2.05;1.02;;;11.40;75.30;;;;;;4757468;30;20112;-87
2023/04/15 08:55:32;;;;;;;2.20;0.82;;;11.50;75.20;;;;;;4758473;30;20059;-91
2023/04/15 08:58:01;;;;;;;2.58;1.10;;;11.60;75.10;;;;;;4750638;30;20048;-87
2023/04/15 09:00:28;;;;;;;3.40;1.40;;;11.60;75.00;;;;;;4740442;30;20055;-89
2023/04/15 09:02:57;;;;;;;2.33;1.02;;;11.60;74.80;;;;;;4743379;30;20052;-88
2023/04/15 09:05:24;;;;;;;3.03;1.15;;;11.50;74.90;;;;;;4757403;30;20052;-89
2023/04/15 09:07:51;;;;;;;3.63;1.27;;;11.60;74.80;;;;;;4755168;30;20051;-91
2023/04/15 09:10:30;;;;;;;2.88;1.40;;;11.60;74.70;;;;;;4731827;30;20060;-92
2023/04/15 09:13:01;;;;;;;2.53;1.45;;;11.70;74.50;;;;;;4751063;30;20489;-89
2023/04/15 09:15:35;;;;;;;2.80;1.20;;;11.80;74.50;;;;;;4767108;30;20052;-89
2023/04/15 09:18:05;;;;;;;1.10;0.55;;;11.90;74.40;;;;;;4735457;30;20056;-86
2023/04/15 09:20:41;;;;;;;2.50;0.90;;;12.00;74.20;;;;;;4765624;30;20054;-86
2023/04/15 09:23:13;;;;;;;3.15;1.50;;;12.20;73.80;;;;;;4763757;30;20058;-88
2023/04/15 09:25:41;;;;;;;2.22;1.25;;;12.20;73.60;;;;;;4775044;30;20071;-90
2023/04/15 09:28:09;;;;;;;2.25;1.17;;;12.20;73.60;;;;;;4771263;30;20084;-88
2023/04/15 09:30:37;;;;;;;2.55;1.33;;;12.30;73.40;;;;;;4774033;30;20052;-88
2023/04/15 09:33:07;;;;;;;3.72;1.52;;;12.40;73.20;;;;;;4762976;30;20055;-87
2023/04/15 09:35:35;;;;;;;3.50;1.98;;;12.40;73.10;;;;;;4761276;30;20547;-86
2023/04/15 09:38:08;;;;;;;3.38;1.40;;;12.50;72.90;;;;;;4762797;30;20075;-88
2023/04/15 09:40:40;;;;;;;2.78;1.23;;;12.50;72.80;;;;;;4759449;30;20047;-85
2023/04/15 09:43:11;;;;;;;2.78;1.20;;;12.60;72.80;;;;;;4746521;30;20045;-86
2023/04/15 09:45:50;;;;;;;3.70;1.10;;;12.60;72.60;;;;;;4742793;30;20486;-87
2023/04/15 09:48:24;;;;;;;2.08;1.02;;;12.70;72.50;;;;;;4771870;30;20052;-88
2023/04/15 09:50:56;;;;;;;2.83;0.90;;;12.70;72.50;;;;;;4740749;30;20090;-85
2023/04/15 09:53:27;;;;;;;2.53;1.10;;;12.80;72.20;;;;;;4741098;30;20101;-89
2023/04/15 09:56:02;;;;;;;3.13;1.10;;;12.90;72.00;;;;;;4738279;30;20056;-88
2023/04/15 09:58:33;;;;;;;3.33;1.40;;;12.90;71.80;;;;;;4747581;30;20052;-88
2023/04/15 10:01:07;;;;;;;3.22;0.93;;;13.00;71.70;;;;;;4757197;30;20047;-89
2023/04/15 10:03:41;;;;;;;2.78;1.27;;;13.10;71.70;;;;;;4772272;30;20055;-86
2023/04/15 10:06:08;;;;;;;3.63;1.70;;;13.10;71.30;;;;;;4758714;30;20052;-89
2023/04/15 10:08:36;;;;;;;3.40;1.45;;;13.20;71.30;;;;;;4761878;30;20064;-89
2023/04/15 10:11:05;;;;;;;3.60;1.60;;;13.30;71.00;;;;;;4755762;30;20062;-88
2023/04/15 10:13:34;;;;;;;2.85;1.60;;;13.30;70.50;;;;;;4743093;30;20052;-89
2023/04/15 10:16:08;;;;;;;2.67;1.27;;;13.30;70.60;;;;;;4769386;30;20127;-89
2023/04/15 10:18:41;;;;;;;2.03;1.00;;;13.40;70.70;;;;;;4766164;30;20048;-89
2023/04/15 10:21:09;;;;;;;1.70;0.85;;;13.50;70.60;;;;;;4754794;30;20052;-86
2023/04/15 10:23:37;;;;;;;3.53;1.17;;;13.70;70.20;;;;;;4760548;30;20074;-86
2023/04/15 10:26:05;;;;;;;2.85;1.40;;;13.80;70.00;;;;;;4763517;30;20052;-89
2023/04/15 10:28:33;;;;;;;3.10;1.35;;;13.90;69.60;;;;;;4753341;30;20059;-93
2023/04/15 10:31:23;;;;;;;3.00;1.35;;;13.90;69.30;;;;;;4766910;30;20047;-89
2023/04/15 10:33:51;;;;;;;3.83;1.73;;;13.90;69.10;;;;;;4785917;30;20043;-89
2023/04/15 10:36:20;;;;;;;3.85;1.30;;;13.60;68.80;;;;;;4769180;30;20056;-87
2023/04/15 10:38:47;;;;;;;2.17;0.98;;;13.50;69.40;;;;;;4752857;30;20044;-90
2023/04/15 10:41:14;;;;;;;2.53;1.15;;;13.50;69.70;;;;;;4754215;30;20059;-88
2023/04/15 10:43:53;;;;;;;3.63;1.13;;;13.70;69.50;;;;;;4761043;30;20109;-90
2023/04/15 10:46:37;;;;;;;2.63;1.20;;;13.80;69.10;;;;;;4750274;30;20497;-91
2023/04/15 10:49:16;;;;;;;2.05;1.00;;;14.00;69.30;;;;;;4775712;30;20056;-91
2023/04/15 10:52:09;;;;;;;;;;;;;;;;;;;;;
2023/04/15 10:59:49;;;;;;;2.15;0.95;;;14.30;68.10;;;;;;4683440;30;20045;-87
2023/04/15 11:07:06;;;;;;;2.38;0.73;;;13.90;68.70;;;;;;4680154;30;20516;-94
2023/04/15 11:09:42;;;;;;;2.42;1.02;;;14.00;68.90;;;;;;4675272;30;20050;-90
2023/04/15 11:12:12;;;;;;;3.38;0.90;;;14.00;68.80;;;;;;4669919;30;20050;-92
2023/04/15 11:14:43;;;;;;;2.17;0.88;;;14.10;68.50;;;;;;4688608;30;20149;-90
2023/04/15 11:17:22;;;;;;;3.83;1.42;;;14.00;68.50;;;;;;4678880;30;20054;-93
2023/04/15 11:24:29;;;;;;;1.83;0.95;;;14.20;67.90;;;;;;4683013;30;20045;-88
2023/04/15 11:28:30;;;;;;;1.77;0.70;;;14.20;67.90;;;;;;4707230;30;20109;-88
2023/04/15 11:31:39;;;;;;;2.58;0.65;;;14.20;67.80;;;;;;4690991;30;20057;-96
2023/04/15 11:34:07;;;;;;;1.33;0.70;;;14.50;66.70;;;;;;4701813;30;20056;-86
2023/04/15 11:36:46;;;;;;;1.50;0.70;;;14.90;65.90;;;;;;4704551;30;20052;-91
2023/04/15 11:39:31;;;;;;;2.72;0.70;;;15.50;65.00;;;;;;4700428;30;20070;-88
2023/04/15 11:42:17;;;;;;;3.03;1.05;;;16.20;63.60;;;;;;4704532;30;20057;-90
2023/04/15 11:44:44;;;;;;;1.38;0.60;;;16.60;62.50;;;;;;4727652;30;20094;-85
2023/04/15 11:55:07;;;;;;;1.25;0.60;;;16.30;62.60;;;;;;4718853;30;20263;-90
2023/04/15 11:58:14;;;;;;;1.08;0.38;;;16.70;61.80;;;;;;4717068;30;20566;-93
2023/04/15 12:01:05;;;;;;;1.17;0.30;;;16.80;61.50;;;;;;4755971;30;20052;-89
2023/04/15 12:07:05;;;;;;;1.38;0.40;;;16.00;62.60;;;;;;4766822;30;20113;-80
2023/04/15 12:09:37;;;;;;;0.80;0.38;;;16.00;62.80;;;;;;4760165;30;20059;-81
2023/04/15 12:12:04;;;;;;;0.95;0.50;;;16.00;62.70;;;;;;4740394;30;20105;-86
2023/04/15 12:14:33;;;;;;;2.28;0.60;;;15.80;62.70;;;;;;4756602;30;20133;-79
2023/04/15 12:17:03;;;;;;;2.15;0.40;;;15.50;62.60;;;;;;4752379;30;20048;-82
2023/04/15 12:19:34;;;;;;;1.58;0.55;;;15.30;63.90;;;;;;4741763;30;20052;-79
2023/04/15 12:22:12;;;;;;;0.52;0.30;;;15.10;63.70;;;;;;4756103;30;20052;-82
2023/04/15 12:24:46;;;;;;;1.95;0.77;;;15.10;64.00;;;;;;4761000;30;20068;-83
2023/04/15 12:27:15;;;;;;;2.17;0.40;;;14.90;63.90;;;;;;4750185;30;20060;-80
2023/04/15 12:29:43;;;;;;;0.82;0.32;;;14.90;64.40;;;;;;4742163;30;20040;-81
2023/04/15 12:32:15;;;;;;;0.63;0.30;;;15.00;64.20;;;;;;4739095;30;20068;-85
2023/04/15 12:34:44;;;;;;;0.80;0.38;;;15.10;64.00;;;;;;4745245;30;20055;-80
2023/04/15 12:37:13;;;;;;;0.80;0.40;;;15.10;63.70;;;;;;4750922;30;20052;-82
2023/04/15 12:39:41;;;;;;;1.83;0.60;;;15.00;63.80;;;;;;4742790;30;20062;-80
2023/04/15 12:42:12;;;;;;;1.33;0.50;;;15.10;63.70;;;;;;4744008;30;20051;-81
2023/04/15 12:44:39;;;;;;;2.92;0.30;;;15.20;63.60;;;;;;4741992;30;20121;-82
2023/04/15 12:47:08;;;;;;;1.00;0.50;;;15.20;63.30;;;;;;4756271;30;20056;-81
2023/04/15 12:49:38;;;;;;;1.40;0.40;;;15.20;63.50;;;;;;4751782;30;20086;-80
2023/04/15 12:52:06;;;;;;;1.35;0.50;;;15.20;63.60;;;;;;4746913;30;20052;-80
2023/04/15 12:54:34;;;;;;;1.90;0.40;;;15.20;63.60;;;;;;4746351;30;20589;-80
2023/04/15 12:57:02;;;;;;;1.50;0.60;;;15.10;63.60;;;;;;4743540;30;20040;-80
2023/04/15 12:59:32;;;;;;;1.27;0.45;;;14.90;63.70;;;;;;4755686;30;20113;-80
2023/04/15 13:02:01;;;;;;;1.10;0.40;;;15.00;63.60;;;;;;4729539;30;20056;-81
2023/04/15 13:04:31;;;;;;;1.17;0.30;;;15.00;63.70;;;;;;4736458;30;20048;-80
2023/04/15 13:07:00;;;;;;;1.77;0.40;;;15.00;63.30;;;;;;4753139;30;20052;-81
2023/04/15 13:09:30;;;;;;;1.33;0.30;;;15.00;63.40;;;;;;4750861;30;20075;-88
2023/04/15 13:11:58;;;;;;;2.92;0.30;;;15.00;63.60;;;;;;4731064;30;20059;-85
2023/04/15 13:14:30;;;;;;;1.55;0.38;;;15.00;63.40;;;;;;4756135;30;20057;-85
2023/04/15 13:16:58;;;;;;;1.08;0.30;;;15.10;63.30;;;;;;4756200;30;20063;-85
2023/04/15 13:19:50;;;;;;;1.70;0.40;;;15.20;63.30;;;;;;4756121;30;20044;-85
2023/04/15 13:22:28;;;;;;;0.98;0.30;;;15.30;62.80;;;;;;4756129;30;20105;-85
2023/04/15 13:25:01;;;;;;;1.10;0.40;;;15.20;63.10;;;;;;4756613;30;20071;-83
2023/04/15 13:27:28;;;;;;;2.88;0.45;;;15.10;62.80;;;;;;4741650;30;20052;-82
2023/04/15 13:30:00;;;;;;;1.48;0.32;;;15.00;62.90;;;;;;4729476;30;20105;-88
2023/04/15 13:32:28;;;;;;;2.80;0.28;;;14.90;63.20;;;;;;4751549;30;20167;-87
2023/04/15 13:34:58;;;;;;;1.27;0.20;;;15.10;63.20;;;;;;4735562;30;20072;-86